Time;durP1;ratioP1;P1;durP2;ratioP2;P2;SDS_P1;SDS_P2;PMS_P1;PMS_P2;Temp;Humidity;BMP_temperature;BMP_pressure;BME280_temperature;BME280_humidity;BME280_pressure;Samples;Min_cycle;Max_cycle;Signal;HPM_P1;HPM_P2
2022/10/06 00:00:29;;;;;;;5.28;3.08;;;17.00;99.90;;;;;;5042263;28;20026;-45
2022/10/06 00:02:55;;;;;;;3.65;2.75;;;16.90;99.90;;;;;;5043435;28;20020;-45
2022/10/06 00:05:20;;;;;;;5.30;2.60;;;16.90;99.90;;;;;;5049397;28;20044;-45
2022/10/06 00:07:46;;;;;;;7.43;2.95;;;16.90;99.90;;;;;;5041223;28;20399;-48
2022/10/06 00:10:11;;;;;;;5.47;2.83;;;16.90;99.90;;;;;;5042060;28;20033;-45
2022/10/06 00:12:45;;;;;;;4.35;2.60;;;16.90;99.90;;;;;;5043052;28;20022;-44
2022/10/06 00:15:13;;;;;;;6.35;3.22;;;16.90;99.90;;;;;;5042273;28;20545;-45
2022/10/06 00:17:39;;;;;;;4.85;2.65;;;16.90;99.90;;;;;;5041086;28;20058;-44
2022/10/06 00:20:06;;;;;;;6.88;3.13;;;17.00;99.90;;;;;;5042848;28;20402;-46
2022/10/06 00:22:40;;;;;;;3.17;2.83;;;16.90;99.90;;;;;;5041364;28;20029;-45
2022/10/06 00:25:07;;;;;;;5.32;3.40;;;16.90;99.90;;;;;;5041131;28;20079;-44
2022/10/06 00:27:37;;;;;;;5.25;3.35;;;16.90;99.90;;;;;;5041362;28;20029;-45
2022/10/06 00:30:04;;;;;;;;;;;16.90;99.90;;;;;;5041169;28;20097;-45
2022/10/06 00:32:29;;;;;;;4.93;2.78;;;16.90;99.90;;;;;;5045022;28;19916;-45
2022/10/06 00:34:58;;;;;;;5.40;3.03;;;16.90;99.90;;;;;;5048753;28;20044;-44
2022/10/06 00:37:25;;;;;;;4.97;2.67;;;16.90;99.90;;;;;;5040294;28;20025;-44
2022/10/06 00:39:50;;;;;;;6.28;3.08;;;16.80;99.90;;;;;;5041690;28;20048;-44
2022/10/06 00:42:27;;;;;;;4.05;3.17;;;16.90;99.90;;;;;;5042390;28;20053;-45
2022/10/06 00:44:54;;;;;;;4.05;2.97;;;16.90;99.90;;;;;;5042870;28;20336;-45
2022/10/06 00:47:23;;;;;;;6.65;2.88;;;16.80;99.90;;;;;;5050450;28;20021;-44
2022/10/06 00:49:49;;;;;;;8.55;3.20;;;16.80;99.90;;;;;;5041103;28;20014;-45
2022/10/06 00:52:19;;;;;;;6.95;2.83;;;16.80;99.90;;;;;;5040421;28;20028;-45
2022/10/06 00:54:45;;;;;;;7.53;3.50;;;16.80;99.90;;;;;;5041736;28;20100;-44
2022/10/06 00:57:11;;;;;;;5.05;3.03;;;16.80;99.90;;;;;;5040488;28;20108;-45
2022/10/06 00:59:38;;;;;;;4.72;2.78;;;16.80;99.90;;;;;;5038967;28;20115;-45
2022/10/06 01:02:19;;;;;;;4.63;2.70;;;16.80;99.90;;;;;;5039974;28;20112;-45
2022/10/06 01:04:47;;;;;;;5.22;2.67;;;16.70;99.90;;;;;;5049498;28;20063;-46
2022/10/06 01:07:13;;;;;;;4.55;2.70;;;16.80;99.90;;;;;;5040958;28;20045;-45
2022/10/06 01:09:39;;;;;;;4.75;2.83;;;16.80;99.90;;;;;;5038462;28;20064;-45
2022/10/06 01:12:06;;;;;;;5.43;2.63;;;16.90;99.90;;;;;;5041727;28;20536;-45
2022/10/06 01:14:35;;;;;;;3.10;2.70;;;16.90;99.90;;;;;;5040520;28;20113;-45
2022/10/06 01:17:08;;;;;;;6.03;2.80;;;17.00;99.90;;;;;;5039645;28;20017;-45
2022/10/06 01:19:48;;;;;;;3.38;1.80;;;17.10;99.90;;;;;;5040474;28;20032;-46
2022/10/06 01:22:16;;;;;;;2.47;1.00;;;17.00;99.90;;;;;;5040818;28;20036;-45
2022/10/06 01:24:45;;;;;;;3.38;1.00;;;16.60;99.90;;;;;;5039067;28;20777;-44
2022/10/06 01:27:11;;;;;;;2.03;1.02;;;16.30;99.90;;;;;;5039357;28;20052;-44
2022/10/06 01:29:37;;;;;;;3.50;1.00;;;16.00;99.90;;;;;;5041284;28;20301;-44
2022/10/06 01:32:03;;;;;;;1.27;0.45;;;15.80;99.90;;;;;;5039705;28;20558;-45
2022/10/06 01:34:28;;;;;;;5.43;0.60;;;15.50;99.90;;;;;;5051715;28;20028;-45
2022/10/06 01:36:54;;;;;;;0.68;0.30;;;15.20;99.90;;;;;;5040043;28;20029;-45
2022/10/06 01:39:19;;;;;;;0.40;0.32;;;15.10;99.90;;;;;;5041105;28;20513;-45
2022/10/06 01:41:46;;;;;;;0.38;0.38;;;14.90;99.90;;;;;;5039688;28;20026;-44
2022/10/06 01:44:13;;;;;;;1.23;0.30;;;14.80;99.90;;;;;;5040158;28;20382;-45
2022/10/06 01:46:38;;;;;;;2.65;0.50;;;14.80;99.90;;;;;;5041268;28;20026;-45
2022/10/06 01:49:04;;;;;;;1.80;0.35;;;14.70;99.90;;;;;;5039590;28;20025;-44
2022/10/06 01:51:29;;;;;;;0.80;0.50;;;14.70;99.90;;;;;;5040538;28;20580;-45
2022/10/06 01:53:54;;;;;;;1.55;0.60;;;14.70;99.90;;;;;;5040591;28;20502;-45
2022/10/06 01:56:20;;;;;;;0.50;0.40;;;14.70;99.90;;;;;;5040968;28;20036;-44
2022/10/06 01:58:46;;;;;;;1.02;0.50;;;14.70;99.90;;;;;;5039159;28;20075;-45
2022/10/06 02:01:12;;;;;;;4.78;0.50;;;14.70;99.90;;;;;;5039865;28;20028;-44
2022/10/06 02:03:39;;;;;;;0.93;0.22;;;14.80;99.90;;;;;;5044772;28;20077;-44
2022/10/06 02:06:04;;;;;;;3.60;0.43;;;14.80;99.90;;;;;;5043793;28;20021;-44
2022/10/06 02:08:31;;;;;;;1.17;0.40;;;14.80;99.90;;;;;;5039404;28;20076;-46
2022/10/06 02:10:56;;;;;;;2.90;0.60;;;14.80;99.90;;;;;;5039257;28;20503;-45
2022/10/06 02:13:26;;;;;;;2.55;0.50;;;14.80;99.90;;;;;;5040162;28;20108;-44
2022/10/06 02:15:55;;;;;;;2.42;0.60;;;14.80;99.90;;;;;;5040013;28;20032;-44
2022/10/06 02:18:21;;;;;;;0.82;0.35;;;14.80;99.90;;;;;;5038627;28;20083;-45
2022/10/06 02:20:46;;;;;;;0.75;0.47;;;14.80;99.90;;;;;;5040468;28;20449;-44
2022/10/06 02:23:12;;;;;;;0.40;0.40;;;14.80;99.90;;;;;;5039656;28;20025;-44
2022/10/06 02:25:37;;;;;;;1.70;0.70;;;14.80;99.90;;;;;;5039050;28;20024;-45
2022/10/06 02:28:02;;;;;;;1.02;0.50;;;14.80;99.90;;;;;;5040545;28;20091;-46
2022/10/06 02:30:28;;;;;;;1.20;0.57;;;14.90;99.90;;;;;;5039163;28;20048;-44
2022/10/06 02:32:54;;;;;;;2.90;1.17;;;14.80;99.90;;;;;;5041226;28;20486;-44
2022/10/06 02:35:19;;;;;;;3.63;0.60;;;14.80;99.90;;;;;;5048921;28;20021;-45
2022/10/06 02:37:45;;;;;;;0.85;0.50;;;14.80;99.90;;;;;;5038550;28;20522;-45
2022/10/06 02:40:10;;;;;;;2.17;0.70;;;14.90;99.90;;;;;;5039528;28;20021;-45
2022/10/06 02:42:36;;;;;;;3.00;0.90;;;14.80;99.90;;;;;;5039427;28;20108;-44
2022/10/06 02:45:05;;;;;;;1.55;0.68;;;14.80;99.90;;;;;;5038175;28;20503;-44
2022/10/06 02:47:31;;;;;;;2.88;0.82;;;14.70;99.90;;;;;;5039091;28;20017;-45
2022/10/06 02:49:58;;;;;;;1.50;0.70;;;14.70;99.90;;;;;;5040260;28;20336;-45
2022/10/06 02:52:23;;;;;;;3.00;0.75;;;14.60;99.90;;;;;;5037774;28;20032;-45
2022/10/06 02:54:49;;;;;;;3.28;0.90;;;14.60;99.90;;;;;;5038135;28;20017;-45
2022/10/06 02:57:15;;;;;;;2.05;1.02;;;14.60;99.90;;;;;;5039706;28;20048;-45
2022/10/06 02:59:41;;;;;;;2.13;0.70;;;14.60;99.90;;;;;;5036799;28;20763;-45
2022/10/06 03:02:07;;;;;;;2.92;0.77;;;14.60;99.90;;;;;;5038352;28;20069;-45
2022/10/06 03:04:32;;;;;;;2.13;0.90;;;14.50;99.90;;;;;;5050128;28;20428;-44
2022/10/06 03:06:58;;;;;;;3.00;0.60;;;14.60;99.90;;;;;;5038301;28;20028;-45
2022/10/06 03:09:24;;;;;;;0.82;0.70;;;14.50;99.90;;;;;;5040201;28;20032;-44
2022/10/06 03:11:49;;;;;;;1.17;0.70;;;14.40;99.90;;;;;;5038818;28;20504;-45
2022/10/06 03:14:15;;;;;;;4.30;0.93;;;14.40;99.90;;;;;;5038041;28;20025;-45
2022/10/06 03:16:41;;;;;;;1.58;0.70;;;14.40;99.90;;;;;;5038818;28;20071;-44
2022/10/06 03:19:08;;;;;;;1.90;0.88;;;14.40;99.90;;;;;;5039120;28;20225;-44
2022/10/06 03:21:39;;;;;;;0.85;0.75;;;14.40;99.90;;;;;;5042879;28;20029;-44
2022/10/06 03:24:05;;;;;;;2.50;0.80;;;14.40;99.90;;;;;;5042264;28;20031;-45
2022/10/06 03:26:34;;;;;;;1.58;0.77;;;14.40;99.90;;;;;;5041559;28;20026;-44
2022/10/06 03:29:00;;;;;;;1.17;0.70;;;14.30;99.90;;;;;;5041876;28;20503;-44
2022/10/06 03:31:26;;;;;;;1.67;0.70;;;14.20;99.90;;;;;;5043788;28;20017;-44
2022/10/06 03:33:54;;;;;;;3.50;1.00;;;14.20;99.90;;;;;;5040843;28;20026;-45
2022/10/06 03:36:21;;;;;;;4.13;0.80;;;14.10;99.90;;;;;;5044336;28;20032;-46
2022/10/06 03:38:47;;;;;;;1.60;0.60;;;14.20;99.90;;;;;;5041890;28;20017;-44
2022/10/06 03:41:21;;;;;;;0.60;0.60;;;14.10;99.90;;;;;;5042285;28;20017;-45
2022/10/06 03:43:48;;;;;;;4.10;0.90;;;14.10;99.90;;;;;;5041148;28;20044;-47
2022/10/06 03:46:17;;;;;;;3.58;0.77;;;14.00;99.90;;;;;;5045846;28;20017;-46
2022/10/06 03:48:43;;;;;;;2.83;1.02;;;13.90;99.90;;;;;;5041374;28;20057;-44
2022/10/06 03:51:26;;;;;;;2.28;0.80;;;13.90;99.90;;;;;;5043071;28;20028;-45
2022/10/06 03:53:51;;;;;;;2.05;0.95;;;13.80;99.90;;;;;;5041927;28;20434;-47
2022/10/06 03:56:29;;;;;;;3.80;0.98;;;13.80;99.90;;;;;;5041725;28;20025;-44
2022/10/06 03:59:09;;;;;;;7.57;1.25;;;13.80;99.90;;;;;;5042821;28;20026;-46
2022/10/06 04:01:36;;;;;;;;;;;13.70;99.90;;;;;;5043160;28;20013;-44
2022/10/06 04:04:03;;;;;;;3.63;1.20;;;13.70;99.90;;;;;;5042894;28;19924;-46
2022/10/06 04:06:31;;;;;;;2.75;1.10;;;13.70;99.90;;;;;;5042971;28;20025;-45
2022/10/06 04:08:57;;;;;;;3.97;1.23;;;13.70;99.90;;;;;;5043161;28;20116;-44
2022/10/06 04:11:25;;;;;;;4.53;1.50;;;13.70;99.90;;;;;;5040136;28;20017;-44
2022/10/06 04:13:53;;;;;;;7.05;1.80;;;13.60;99.90;;;;;;5042272;28;20021;-45
2022/10/06 04:16:21;;;;;;;4.10;1.00;;;13.60;99.90;;;;;;5042884;28;20025;-48
2022/10/06 04:18:53;;;;;;;4.28;1.13;;;13.50;99.90;;;;;;5040907;28;20037;-45
2022/10/06 04:21:18;;;;;;;10.90;1.60;;;13.50;99.90;;;;;;5041404;28;20033;-44
2022/10/06 04:23:44;;;;;;;5.68;1.48;;;13.50;99.90;;;;;;5042369;28;20393;-44
2022/10/06 04:26:13;;;;;;;6.28;1.40;;;13.50;99.90;;;;;;5041486;28;20032;-43
2022/10/06 04:28:40;;;;;;;5.05;1.60;;;13.50;99.90;;;;;;5041037;28;20033;-46
2022/10/06 04:31:17;;;;;;;8.77;1.60;;;13.50;99.90;;;;;;5041162;28;20445;-44
2022/10/06 04:33:44;;;;;;;4.45;1.88;;;13.50;99.90;;;;;;5041634;28;20563;-44
2022/10/06 04:36:13;;;;;;;5.60;1.73;;;13.40;99.90;;;;;;5043396;28;20029;-45
2022/10/06 04:38:39;;;;;;;9.65;1.80;;;13.40;99.90;;;;;;5040730;28;20029;-44
2022/10/06 04:41:07;;;;;;;7.32;1.42;;;13.30;99.90;;;;;;5045897;28;20034;-45
2022/10/06 04:43:34;;;;;;;3.60;1.27;;;13.30;99.90;;;;;;5042266;28;20053;-44
2022/10/06 04:45:59;;;;;;;3.42;1.52;;;13.30;99.90;;;;;;5040450;28;20100;-45
2022/10/06 04:48:26;;;;;;;5.18;1.92;;;13.30;99.90;;;;;;5042075;28;20099;-45
2022/10/06 04:51:00;;;;;;;6.57;1.73;;;13.30;99.90;;;;;;5039736;28;20398;-44
2022/10/06 04:53:26;;;;;;;9.02;1.95;;;13.20;99.90;;;;;;5041753;28;20360;-44
2022/10/06 04:56:07;;;;;;;7.05;1.83;;;13.20;99.90;;;;;;5040500;28;20087;-45
2022/10/06 04:58:34;;;;;;;14.65;2.42;;;13.20;99.90;;;;;;5040681;28;20038;-45
2022/10/06 05:01:01;;;;;;;12.75;2.20;;;13.20;99.90;;;;;;5040818;28;20086;-45
2022/10/06 05:03:27;;;;;;;5.00;2.03;;;13.20;99.90;;;;;;5041575;28;20025;-45
2022/10/06 05:06:03;;;;;;;9.35;1.83;;;13.10;99.90;;;;;;5044487;28;20109;-44
2022/10/06 05:08:29;;;;;;;5.50;1.85;;;13.10;99.90;;;;;;5039966;28;20101;-45
2022/10/06 05:11:06;;;;;;;8.10;2.08;;;13.10;99.90;;;;;;5041208;28;20107;-44
2022/10/06 05:13:32;;;;;;;12.77;1.70;;;13.10;99.90;;;;;;5038455;28;20111;-45
2022/10/06 05:15:59;;;;;;;8.30;2.17;;;13.10;99.90;;;;;;5039570;28;20116;-44
2022/10/06 05:18:26;;;;;;;4.00;1.50;;;13.10;99.90;;;;;;5041413;28;20021;-45
2022/10/06 05:21:00;;;;;;;9.70;1.98;;;13.10;99.90;;;;;;5040029;28;20487;-44
2022/10/06 05:23:27;;;;;;;9.48;1.90;;;13.10;99.90;;;;;;5039076;28;20029;-43
2022/10/06 05:25:55;;;;;;;10.10;1.80;;;13.10;99.90;;;;;;5041315;28;20021;-44
2022/10/06 05:28:21;;;;;;;10.80;2.00;;;13.10;99.90;;;;;;5041459;28;20100;-45
2022/10/06 05:31:01;;;;;;;7.70;1.90;;;13.10;99.90;;;;;;5039030;28;20019;-47
2022/10/06 05:33:29;;;;;;;11.43;2.23;;;13.10;99.90;;;;;;5050746;28;20518;-45
2022/10/06 05:35:58;;;;;;;8.35;2.00;;;13.10;99.90;;;;;;5051469;28;20056;-45
2022/10/06 05:38:24;;;;;;;7.85;1.90;;;13.10;99.90;;;;;;5050910;28;20041;-46
2022/10/06 05:40:49;;;;;;;8.38;1.83;;;13.10;99.90;;;;;;5050815;28;20498;-47
2022/10/06 05:43:16;;;;;;;6.97;1.77;;;13.00;99.90;;;;;;5048287;28;20039;-44
2022/10/06 05:45:55;;;;;;;8.73;2.75;;;13.10;99.90;;;;;;5045837;28;20021;-45
2022/10/06 05:48:21;;;;;;;14.85;2.10;;;13.10;99.90;;;;;;5061344;28;20107;-46
2022/10/06 05:50:48;;;;;;;7.82;2.45;;;13.20;99.90;;;;;;5070652;28;20559;-46
2022/10/06 05:53:14;;;;;;;6.47;2.35;;;13.30;99.90;;;;;;5070357;28;20394;-46
2022/10/06 05:55:39;;;;;;;5.15;2.00;;;13.30;99.90;;;;;;5070772;28;20025;-45
2022/10/06 05:58:05;;;;;;;9.32;2.42;;;13.30;99.90;;;;;;5070459;28;20029;-46
2022/10/06 06:00:30;;;;;;;15.20;2.70;;;13.40;99.90;;;;;;5070468;28;20088;-44
2022/10/06 06:02:56;;;;;;;11.02;2.83;;;13.40;99.90;;;;;;5059954;28;20132;-45
2022/10/06 06:05:21;;;;;;;11.80;2.20;;;13.40;99.90;;;;;;5059641;28;20081;-45
2022/10/06 06:07:46;;;;;;;7.32;2.33;;;13.50;99.90;;;;;;5070533;28;20029;-45
2022/10/06 06:10:12;;;;;;;8.70;2.22;;;13.60;99.90;;;;;;5067958;28;20107;-45
2022/10/06 06:12:37;;;;;;;9.98;2.10;;;13.60;99.90;;;;;;5049072;28;20040;-46
2022/10/06 06:17:48;;;;;;;14.40;2.92;;;13.80;99.90;;;;;;5049783;28;20091;-46
2022/10/06 06:20:13;;;;;;;13.63;2.35;;;13.80;99.90;;;;;;5050149;28;20478;-45
2022/10/06 06:22:39;;;;;;;9.13;2.00;;;13.80;99.90;;;;;;5049526;28;20028;-45
2022/10/06 06:25:05;;;;;;;10.85;2.30;;;13.90;99.90;;;;;;5049793;28;20017;-47
2022/10/06 06:27:31;;;;;;;11.48;2.53;;;13.90;99.90;;;;;;5050317;28;20394;-46
2022/10/06 06:29:57;;;;;;;13.00;2.50;;;13.90;99.90;;;;;;5048545;28;20020;-45
2022/10/06 06:32:22;;;;;;;8.30;2.00;;;14.00;99.90;;;;;;5049517;28;20108;-45
2022/10/06 06:34:48;;;;;;;12.25;3.47;;;14.00;99.90;;;;;;5052759;28;20609;-46
2022/10/06 06:37:14;;;;;;;13.45;3.00;;;14.10;99.90;;;;;;5068084;28;20024;-45
2022/10/06 06:39:39;;;;;;;11.60;2.25;;;14.10;99.90;;;;;;5068173;28;20016;-45
2022/10/06 06:42:07;;;;;;;9.80;2.97;;;14.00;99.90;;;;;;5069614;28;20108;-45
2022/10/06 06:44:33;;;;;;;15.70;2.28;;;14.00;99.90;;;;;;5067842;28;20024;-44
2022/10/06 06:47:00;;;;;;;18.05;2.53;;;14.10;99.90;;;;;;5068112;28;20319;-44
2022/10/06 06:49:25;;;;;;;9.60;2.65;;;14.00;99.90;;;;;;5067856;28;20021;-45
2022/10/06 06:51:53;;;;;;;6.88;2.38;;;14.10;99.90;;;;;;5068134;28;20029;-44
2022/10/06 06:54:18;;;;;;;11.85;2.50;;;14.10;99.90;;;;;;5066959;28;20054;-44
2022/10/06 06:56:45;;;;;;;8.80;2.20;;;14.10;99.90;;;;;;5051855;28;20066;-45
2022/10/06 06:59:11;;;;;;;8.38;1.92;;;14.00;99.90;;;;;;5048007;28;20028;-45
2022/10/06 07:01:43;;;;;;;12.25;2.78;;;13.90;99.90;;;;;;5047898;28;20029;-44
2022/10/06 07:04:09;;;;;;;11.70;2.80;;;13.90;99.90;;;;;;5052678;28;20025;-45
2022/10/06 07:06:36;;;;;;;15.40;2.28;;;13.90;99.90;;;;;;5062325;28;20028;-46
2022/10/06 07:09:02;;;;;;;8.00;2.70;;;14.00;99.90;;;;;;5069251;28;20028;-45
2022/10/06 07:11:30;;;;;;;9.98;2.63;;;14.00;99.90;;;;;;5068273;28;20020;-45
2022/10/06 07:14:01;;;;;;;11.40;2.53;;;14.00;99.90;;;;;;5051244;28;20092;-45
2022/10/06 07:27:30;;;;;;;11.07;2.72;;;14.10;99.90;;;;;;5049287;28;20056;-44
2022/10/06 07:29:56;;;;;;;16.25;3.30;;;14.20;99.90;;;;;;5047994;28;20530;-46
2022/10/06 07:32:23;;;;;;;16.08;3.38;;;14.20;99.90;;;;;;5049083;28;20027;-45
2022/10/06 07:34:49;;;;;;;10.25;2.67;;;14.30;99.90;;;;;;5038620;28;20036;-44
2022/10/06 07:37:15;;;;;;;10.40;3.38;;;14.40;99.90;;;;;;5040776;28;20033;-47
2022/10/06 07:39:41;;;;;;;16.17;3.10;;;14.60;99.90;;;;;;5029162;28;20034;-45
2022/10/06 07:42:14;;;;;;;12.73;2.38;;;14.60;99.90;;;;;;5032940;28;20518;-48
2022/10/06 07:44:41;;;;;;;13.57;2.30;;;14.60;99.90;;;;;;5033166;28;20025;-46
2022/10/06 07:47:07;;;;;;;13.93;3.17;;;14.60;99.90;;;;;;5044011;28;20018;-46
2022/10/06 07:49:33;;;;;;;11.82;2.10;;;14.60;99.90;;;;;;5034036;28;20028;-45
2022/10/06 07:51:58;;;;;;;9.75;2.33;;;14.70;99.90;;;;;;5028936;28;20030;-45
2022/10/06 07:54:24;;;;;;;12.70;3.20;;;14.70;99.90;;;;;;5028938;28;20155;-46
2022/10/06 07:56:51;;;;;;;13.85;2.75;;;14.70;99.90;;;;;;5029003;28;20554;-45
2022/10/06 07:59:17;;;;;;;11.40;2.47;;;14.70;99.90;;;;;;5029465;28;20042;-45
2022/10/06 08:01:44;;;;;;;9.82;2.30;;;14.70;99.90;;;;;;5028873;28;20037;-45
2022/10/06 08:04:10;;;;;;;9.25;2.47;;;14.60;99.90;;;;;;5045744;28;20016;-45
2022/10/06 08:06:37;;;;;;;8.90;2.00;;;14.60;99.90;;;;;;5064943;28;20034;-48
2022/10/06 08:09:03;;;;;;;10.65;2.10;;;14.70;99.90;;;;;;5072207;28;20020;-46
2022/10/06 08:11:28;;;;;;;10.27;2.67;;;14.80;99.90;;;;;;5071985;28;20033;-48
2022/10/06 08:13:55;;;;;;;11.73;2.40;;;15.00;99.90;;;;;;5070205;28;20421;-45
2022/10/06 08:16:22;;;;;;;20.38;3.47;;;15.10;99.90;;;;;;5072619;28;20093;-47
2022/10/06 08:18:52;;;;;;;10.55;2.75;;;15.20;99.90;;;;;;5062166;28;20055;-45
2022/10/06 08:21:21;;;;;;;16.77;2.20;;;15.20;99.90;;;;;;5063850;28;20035;-45
2022/10/06 08:23:48;;;;;;;10.63;2.72;;;15.20;99.90;;;;;;5071663;28;20032;-45
2022/10/06 08:26:14;;;;;;;9.98;1.98;;;15.00;99.90;;;;;;5072281;28;20021;-45
2022/10/06 08:28:44;;;;;;;14.60;2.88;;;15.00;99.90;;;;;;5072231;28;20025;-48
2022/10/06 08:31:10;;;;;;;17.23;3.10;;;15.20;99.90;;;;;;5072366;28;20028;-48
2022/10/06 08:33:37;;;;;;;7.00;2.33;;;15.40;99.90;;;;;;5071542;28;20017;-44
2022/10/06 08:36:08;;;;;;;15.25;2.13;;;15.70;99.90;;;;;;5072290;28;20684;-44
2022/10/06 08:38:36;;;;;;;11.45;3.13;;;15.90;99.90;;;;;;5072199;28;20028;-45
2022/10/06 08:41:03;;;;;;;8.60;2.13;;;16.10;99.90;;;;;;5071005;28;20102;-46
2022/10/06 08:43:30;;;;;;;17.17;2.92;;;16.50;99.90;;;;;;5072107;28;20024;-46
2022/10/06 08:45:59;;;;;;;10.68;2.20;;;17.60;99.90;;;;;;5072893;28;20031;-46
2022/10/06 08:48:28;;;;;;;6.97;1.90;;;18.90;98.10;;;;;;5063849;28;20103;-49
2022/10/06 08:51:14;;;;;;;5.75;1.83;;;19.90;96.20;;;;;;5062230;28;20016;-46
2022/10/06 08:53:53;;;;;;;12.43;2.83;;;21.10;94.10;;;;;;5056388;28;20052;-48
2022/10/06 08:56:24;;;;;;;5.95;1.88;;;22.40;89.80;;;;;;5071078;28;20033;-46
2022/10/06 08:59:03;;;;;;;15.48;2.72;;;22.90;86.00;;;;;;5071736;28;20037;-46
2022/10/06 09:01:37;;;;;;;8.73;2.55;;;22.40;84.00;;;;;;5071604;28;20043;-46
2022/10/06 09:04:06;;;;;;;14.32;2.22;;;22.60;81.90;;;;;;5063642;28;20060;-46
2022/10/06 09:07:06;;;;;;;8.55;2.10;;;22.30;80.50;;;;;;5064116;28;20426;-49
2022/10/06 09:09:41;;;;;;;12.00;2.03;;;22.20;79.90;;;;;;5071811;28;20377;-48
2022/10/06 09:13:08;;;;;;;10.18;2.08;;;22.70;80.40;;;;;;5071605;28;20486;-46
2022/10/06 09:15:51;;;;;;;7.03;2.10;;;23.50;79.20;;;;;;5048660;28;20060;-48
2022/10/06 09:18:30;;;;;;;8.15;2.65;;;23.20;77.30;;;;;;5068260;28;20032;-46
2022/10/06 09:21:05;;;;;;;7.60;2.50;;;23.60;74.60;;;;;;5071106;28;20494;-48
2022/10/06 09:23:46;;;;;;;8.57;2.92;;;24.20;71.90;;;;;;5071065;28;20057;-48
2022/10/06 09:26:27;;;;;;;6.15;1.80;;;24.70;71.30;;;;;;5071203;28;20091;-46
2022/10/06 09:28:53;;;;;;;7.50;2.05;;;25.10;69.50;;;;;;5070953;28;20028;-46
2022/10/06 09:31:27;;;;;;;9.93;1.75;;;25.40;67.20;;;;;;5071364;28;20016;-49
2022/10/06 09:33:58;;;;;;;6.18;1.77;;;25.70;65.90;;;;;;5065141;28;20359;-47
2022/10/06 09:36:24;;;;;;;6.40;2.20;;;26.10;65.30;;;;;;5062634;28;20032;-46
2022/10/06 09:38:54;;;;;;;6.63;1.90;;;25.70;63.70;;;;;;5070948;28;20021;-45
2022/10/06 09:41:43;;;;;;;7.28;2.10;;;26.10;65.00;;;;;;5070725;28;20024;-46
2022/10/06 09:44:24;;;;;;;6.05;2.65;;;26.70;63.80;;;;;;5041415;28;20026;-46
2022/10/06 09:46:51;;;;;;;6.85;2.00;;;27.50;62.70;;;;;;5041607;28;20048;-47
2022/10/06 09:49:18;;;;;;;6.60;1.65;;;28.40;60.60;;;;;;5052633;28;20017;-47
2022/10/06 09:52:14;;;;;;;7.18;1.77;;;29.00;58.00;;;;;;5050983;28;20021;-47
2022/10/06 09:54:40;;;;;;;8.80;1.83;;;28.90;55.40;;;;;;5050165;28;20048;-50
2022/10/06 09:57:13;;;;;;;6.57;1.58;;;28.10;56.10;;;;;;5050820;28;20028;-46
2022/10/06 09:59:44;;;;;;;5.80;1.95;;;27.30;57.50;;;;;;5042103;28;20029;-46
2022/10/06 10:02:35;;;;;;;7.07;2.10;;;27.10;58.00;;;;;;5038346;28;20112;-49
2022/10/06 10:05:02;;;;;;;9.02;1.95;;;28.00;57.00;;;;;;5048687;28;20129;-46
2022/10/06 10:07:29;;;;;;;5.72;2.28;;;27.60;56.70;;;;;;5061075;28;20022;-47
2022/10/06 10:10:17;;;;;;;7.60;2.03;;;28.10;54.80;;;;;;5040901;28;20025;-47
2022/10/06 10:12:59;;;;;;;11.35;2.28;;;28.90;54.90;;;;;;5037378;28;20037;-46
2022/10/06 10:15:30;;;;;;;9.48;2.30;;;29.10;52.90;;;;;;5049368;28;20086;-46
2022/10/06 10:17:59;;;;;;;6.88;1.75;;;29.40;54.60;;;;;;5050422;28;20028;-46
2022/10/06 10:20:33;;;;;;;6.97;2.20;;;29.80;51.70;;;;;;5049873;28;20047;-47
2022/10/06 10:23:02;;;;;;;7.43;2.20;;;29.40;50.80;;;;;;5049794;28;20395;-47
2022/10/06 10:25:46;;;;;;;6.97;1.90;;;28.10;52.70;;;;;;5049596;28;20120;-46
2022/10/06 10:28:41;;;;;;;5.15;1.95;;;28.40;52.20;;;;;;5050060;28;20394;-46
2022/10/06 10:31:13;;;;;;;3.75;1.58;;;29.40;52.50;;;;;;5049824;28;20395;-46
2022/10/06 10:33:53;;;;;;;7.75;2.10;;;29.70;50.50;;;;;;5049546;28;20567;-49
2022/10/06 10:36:33;;;;;;;7.68;1.67;;;29.30;51.30;;;;;;5050075;28;20059;-46
2022/10/06 10:39:00;;;;;;;14.15;2.78;;;28.70;51.00;;;;;;5049758;28;20036;-46
2022/10/06 10:41:30;;;;;;;7.25;2.25;;;28.00;51.10;;;;;;5047584;28;20448;-46
2022/10/06 10:44:07;;;;;;;8.93;2.13;;;27.80;52.20;;;;;;5056250;28;20021;-47
2022/10/06 10:46:47;;;;;;;10.32;1.95;;;28.10;54.50;;;;;;5050248;28;20043;-49
2022/10/06 10:49:24;;;;;;;8.32;1.80;;;27.90;53.70;;;;;;5049642;28;20096;-49
2022/10/06 10:51:59;;;;;;;5.53;2.03;;;28.20;53.30;;;;;;5049521;28;20025;-48
2022/10/06 10:54:33;;;;;;;8.48;1.83;;;28.80;52.60;;;;;;5048983;28;20027;-46
2022/10/06 10:56:59;;;;;;;8.77;1.55;;;29.10;51.90;;;;;;5049359;28;20118;-47
2022/10/06 10:59:58;;;;;;;5.40;1.80;;;29.10;51.10;;;;;;5049536;28;20057;-46
2022/10/06 11:02:25;;;;;;;8.10;1.97;;;29.30;49.40;;;;;;5049152;28;20067;-47
2022/10/06 11:05:04;;;;;;;6.40;1.75;;;28.70;50.50;;;;;;5047250;28;20032;-49
2022/10/06 11:07:59;;;;;;;5.70;1.60;;;29.40;51.70;;;;;;5060608;28;20143;-47
2022/10/06 11:10:30;;;;;;;5.57;2.00;;;29.40;50.20;;;;;;5069295;28;20013;-46
2022/10/06 11:13:17;;;;;;;7.82;1.90;;;29.50;50.90;;;;;;5069109;28;20298;-47
2022/10/06 11:16:13;;;;;;;7.35;1.65;;;28.70;52.40;;;;;;5056702;28;20458;-48
2022/10/06 11:18:57;;;;;;;5.07;2.30;;;28.40;52.10;;;;;;5056602;28;20063;-46
2022/10/06 11:21:33;;;;;;;5.60;1.98;;;28.60;51.60;;;;;;5068574;28;20029;-47
2022/10/06 11:24:14;;;;;;;8.73;2.15;;;27.40;52.60;;;;;;5068993;28;20114;-46
2022/10/06 11:26:48;;;;;;;4.40;1.88;;;25.50;54.50;;;;;;5069587;28;20017;-47
2022/10/06 11:29:33;;;;;;;6.28;1.83;;;25.50;56.30;;;;;;5069841;28;20016;-46
2022/10/06 11:32:20;;;;;;;7.50;1.83;;;25.50;54.70;;;;;;5069243;28;20035;-46
2022/10/06 11:34:49;;;;;;;4.03;1.48;;;26.30;56.00;;;;;;5069058;28;20033;-46
2022/10/06 11:37:22;;;;;;;7.50;2.00;;;27.10;52.70;;;;;;5069314;28;20070;-46
2022/10/06 11:39:54;;;;;;;4.53;1.42;;;27.60;53.30;;;;;;5069491;28;20033;-46
2022/10/06 11:42:51;;;;;;;3.78;1.50;;;27.60;54.70;;;;;;5072940;28;20053;-48
2022/10/06 11:45:23;;;;;;;7.82;1.95;;;27.80;51.70;;;;;;5062690;28;20060;-47
2022/10/06 11:48:16;;;;;;;4.22;1.58;;;27.50;52.00;;;;;;5064600;28;20371;-49
2022/10/06 11:50:43;;;;;;;4.82;1.80;;;27.70;50.20;;;;;;5059358;28;20509;-47
2022/10/06 11:53:37;;;;;;;4.47;1.58;;;27.80;51.50;;;;;;5070619;28;20099;-47
2022/10/06 11:56:15;;;;;;;4.75;1.63;;;28.10;52.20;;;;;;5073025;28;20127;-47
2022/10/06 11:58:50;;;;;;;10.27;2.00;;;27.20;50.10;;;;;;5072963;28;20028;-47
2022/10/06 12:01:31;;;;;;;4.63;1.65;;;27.00;51.80;;;;;;5072977;28;20020;-46
2022/10/06 12:04:07;;;;;;;4.82;1.38;;;27.00;52.10;;;;;;5056810;28;20022;-49
2022/10/06 12:09:24;;;;;;;5.47;2.10;;;26.20;52.40;;;;;;5053043;28;20144;-47
2022/10/06 12:11:52;;;;;;;7.00;1.73;;;25.50;53.40;;;;;;5052727;28;20032;-46
2022/10/06 12:14:45;;;;;;;6.45;1.70;;;25.50;54.60;;;;;;5052284;28;20501;-46
2022/10/06 12:17:41;;;;;;;8.65;2.00;;;25.30;57.20;;;;;;5052335;28;20455;-46
2022/10/06 12:20:24;;;;;;;9.93;2.25;;;25.10;55.20;;;;;;5058671;28;20540;-45
2022/10/06 12:22:56;;;;;;;6.00;1.38;;;24.90;57.70;;;;;;5071971;28;20016;-45
2022/10/06 12:25:52;;;;;;;5.80;1.50;;;24.20;58.10;;;;;;5072092;28;20035;-46
2022/10/06 12:28:50;;;;;;;9.32;2.33;;;24.00;57.70;;;;;;5072257;28;20033;-46
2022/10/06 12:31:32;;;;;;;7.40;1.55;;;23.60;57.00;;;;;;5072438;28;20025;-45
2022/10/06 12:33:57;;;;;;;9.95;2.22;;;22.90;59.80;;;;;;5071677;28;20395;-45
2022/10/06 12:36:25;;;;;;;6.00;1.88;;;23.20;61.70;;;;;;5072376;28;20051;-46
2022/10/06 12:39:08;;;;;;;8.65;1.90;;;23.40;63.70;;;;;;5071999;28;20024;-45
2022/10/06 12:42:00;;;;;;;10.38;2.30;;;23.60;59.70;;;;;;5070971;28;20033;-45
2022/10/06 12:44:48;;;;;;;6.30;2.05;;;23.30;58.00;;;;;;5072090;28;20364;-45
2022/10/06 12:47:36;;;;;;;4.82;1.55;;;23.20;57.20;;;;;;5071815;28;20047;-46
2022/10/06 12:50:16;;;;;;;8.35;1.48;;;22.00;60.90;;;;;;5057645;28;20021;-46
2022/10/06 12:53:04;;;;;;;6.60;1.63;;;22.00;59.50;;;;;;5071321;28;20543;-45
2022/10/06 12:55:42;;;;;;;6.05;1.52;;;21.70;61.20;;;;;;5056271;28;20486;-45
2022/10/06 12:58:17;;;;;;;5.85;1.55;;;21.90;61.00;;;;;;5040149;28;20063;-45
2022/10/06 13:00:43;;;;;;;3.13;1.52;;;21.90;60.90;;;;;;5038914;28;20021;-46
2022/10/06 13:03:22;;;;;;;6.53;1.30;;;22.00;60.00;;;;;;5046010;28;20033;-45
2022/10/06 13:05:57;;;;;;;5.32;1.70;;;22.00;60.60;;;;;;5043435;28;20390;-46
2022/10/06 13:08:24;;;;;;;8.35;1.52;;;22.30;61.90;;;;;;5043668;28;20021;-47
2022/10/06 13:10:50;;;;;;;7.47;1.80;;;21.90;61.00;;;;;;5035383;28;20302;-45
2022/10/06 13:13:23;;;;;;;7.88;1.88;;;21.70;61.50;;;;;;5046113;28;20292;-46
2022/10/06 13:15:54;;;;;;;4.72;1.83;;;21.50;61.70;;;;;;5037017;28;20412;-46
2022/10/06 13:18:22;;;;;;;5.85;1.65;;;21.20;61.10;;;;;;5036762;28;20383;-47
2022/10/06 13:20:55;;;;;;;6.10;1.52;;;21.50;64.10;;;;;;5043971;28;20092;-47